Lower Pig Pen, North Carolina
Current Conditions -  °F | °C
As of 8:15 PM on Tuesday 27 Jan 2015 (Local Time) from K0A9 Reporting Station
Clear Clear  
Wind Chill: 21°   Ceiling: Unl
Heat Index: 27°   Visibility: 10mi
Dew Point: 19°   Wind: 5mph
Humidity: 74%   Direction: 250°WSW
Pressure: 30.04"   Gusts: NA
Location:  35.955°N, 82.2044°W
Report Text: K0A9 280115Z AUTO 25004KT 10SM CLR M03/M07 A3004 RMK
Loading
Personal Weather Stations






























Interactive Weather Map New forecast layout! Learn more

10-Day Weather Forecast

Advertisements
Track Severe Weather on mobile